createdAt,value
2023-04-15T00:03:52.780Z,66841.56
2023-04-15T00:08:56.238Z,66616.35
2023-04-15T00:14:03.098Z,66556.51
2023-04-15T00:19:06.449Z,66569.57
2023-04-15T00:24:09.834Z,66628.16
2023-04-15T00:29:15.313Z,66701.98
2023-04-15T00:34:18.796Z,67230.46
2023-04-15T00:39:24.406Z,67331.59
2023-04-15T00:44:31.346Z,67320.42
2023-04-15T00:49:39.367Z,67142.98
2023-04-15T00:54:42.699Z,66837.39
2023-04-15T00:59:53.964Z,66785.11
2023-04-15T01:04:57.651Z,66659.98
2023-04-15T01:10:02.369Z,66030.78
2023-04-15T01:15:08.127Z,66006.66
2023-04-15T01:20:12.284Z,65748.77
2023-04-15T01:25:21.717Z,65697.07
2023-04-15T01:30:29.988Z,65480.86
2023-04-15T01:35:35.726Z,65330.21
2023-04-15T01:40:39.524Z,64929.17
2023-04-15T01:45:47.010Z,64635.95
2023-04-15T01:50:50.365Z,64598.80
2023-04-15T01:55:53.733Z,64666.08
2023-04-15T02:00:58.457Z,64855.82
2023-04-15T02:06:06.247Z,64755.64
2023-04-15T02:11:09.591Z,65065.09
2023-04-15T02:16:21.414Z,65251.93
2023-04-15T02:21:24.799Z,65037.98
2023-04-15T02:26:28.130Z,65091.15
2023-04-15T02:31:37.015Z,65063.93
2023-04-15T02:36:42.966Z,64914.44
2023-04-15T02:41:47.859Z,64975.21
2023-04-15T02:46:54.872Z,65069.66
2023-04-15T02:52:00.028Z,65499.92
2023-04-15T02:57:04.090Z,65644.64
2023-04-15T03:02:46.279Z,65518.34
2023-04-15T03:08:12.501Z,65344.32
2023-04-15T03:13:15.879Z,65360.48
2023-04-15T03:18:22.164Z,65489.04
2023-04-15T03:23:30.053Z,65234.93
2023-04-15T03:28:34.175Z,64651.44
2023-04-15T03:33:38.917Z,64394.65
2023-04-15T03:38:46.434Z,63373.57
2023-04-15T03:43:52.078Z,63190.88
2023-04-15T03:48:55.430Z,63797.72
2023-04-15T03:54:00.130Z,63434.13
2023-04-15T03:59:03.610Z,62495.35
2023-04-15T04:04:09.228Z,62935.15
2023-04-15T04:09:16.551Z,63038.82
2023-04-15T04:14:19.841Z,62948.56
2023-04-15T04:19:25.507Z,62452.10
2023-04-15T04:24:30.272Z,61889.21
2023-04-15T04:29:36.162Z,61949.93
2023-04-15T04:34:41.925Z,62062.56
2023-04-15T04:39:46.692Z,62292.26
2023-04-15T04:44:50.053Z,62131.54
2023-04-15T04:49:55.585Z,62213.70
2023-04-15T04:55:05.899Z,62243.00
2023-04-15T05:00:14.165Z,62413.91
2023-04-15T05:05:17.487Z,62507.01
2023-04-15T05:10:24.569Z,62694.70
2023-04-15T05:15:28.222Z,62545.82
2023-04-15T05:20:31.606Z,62709.89
2023-04-15T05:25:36.567Z,62579.54
2023-04-15T05:30:40.272Z,62636.96
2023-04-15T05:35:46.913Z,62513.07
2023-04-15T05:40:51.863Z,62701.63
2023-04-15T05:45:57.425Z,62464.28
2023-04-15T05:51:00.840Z,62574.81
2023-04-15T05:56:08.037Z,62820.00
2023-04-15T06:01:11.794Z,62845.99
2023-04-15T06:06:16.254Z,62850.07
2023-04-15T06:11:21.448Z,62635.41
2023-04-15T06:16:24.792Z,62552.73
2023-04-15T06:21:28.216Z,63083.66
2023-04-15T06:26:35.277Z,62986.73
2023-04-15T06:31:38.579Z,62949.32
2023-04-15T06:36:42.366Z,62895.29
2023-04-15T06:41:47.391Z,62737.64
2023-04-15T06:46:55.359Z,62683.45
2023-04-15T06:52:01.659Z,62954.04
2023-04-15T06:57:07.172Z,63092.64
2023-04-15T07:02:13.519Z,62951.98
2023-04-15T07:07:19.308Z,62656.63
2023-04-15T07:12:24.319Z,62767.68
2023-04-15T07:17:27.910Z,62910.00
2023-04-15T07:22:31.180Z,62798.48
2023-04-15T07:27:36.049Z,61819.59
2023-04-15T07:32:39.333Z,61925.36
2023-04-15T07:37:43.416Z,61799.18
2023-04-15T07:42:49.461Z,62028.16
2023-04-15T07:47:52.939Z,62486.63
2023-04-15T07:52:56.369Z,62732.86
2023-04-15T07:58:03.305Z,62533.03
2023-04-15T08:03:06.891Z,62390.35
2023-04-15T08:08:14.889Z,62243.11
2023-04-15T08:13:19.550Z,62186.04
2023-04-15T08:18:22.795Z,62760.99
2023-04-15T08:23:26.343Z,62664.50
2023-04-15T08:28:33.603Z,62664.94
2023-04-15T08:33:37.067Z,62696.12
2023-04-15T08:38:40.583Z,62555.51
2023-04-15T08:43:52.962Z,62761.52
2023-04-15T08:48:57.997Z,62769.36
2023-04-15T08:54:01.916Z,62869.69
2023-04-15T08:59:07.385Z,63208.34
2023-04-15T09:04:12.658Z,62627.24
2023-04-15T09:09:18.373Z,62224.71
2023-04-15T09:14:23.048Z,62295.24
2023-04-15T09:19:29.125Z,62464.86
2023-04-15T09:24:38.615Z,62146.42
2023-04-15T09:29:43.768Z,62019.12
2023-04-15T09:34:48.144Z,62027.18
2023-04-15T09:39:52.250Z,61950.61
2023-04-15T09:45:10.583Z,61834.59
2023-04-15T09:50:14.724Z,62380.84
2023-04-15T09:55:19.235Z,62058.21
2023-04-15T10:00:23.906Z,61465.85
2023-04-15T10:05:29.722Z,61613.00
2023-04-15T10:10:36.349Z,61537.62
2023-04-15T10:15:46.105Z,62367.21
2023-04-15T10:20:50.061Z,62802.25
2023-04-15T10:25:54.413Z,62966.28
2023-04-15T10:31:03.051Z,62901.32
2023-04-15T10:36:08.977Z,63065.32
2023-04-15T10:41:21.236Z,62854.09
2023-04-15T10:46:37.631Z,62872.74
2023-04-15T10:51:44.865Z,63654.95
2023-04-15T10:56:52.892Z,63322.39
2023-04-15T11:02:02.068Z,63487.67
2023-04-15T11:07:09.224Z,63762.29
2023-04-15T11:12:14.963Z,63699.13
2023-04-15T11:17:30.044Z,63686.50
2023-04-15T11:22:34.240Z,63807.79
2023-04-15T11:27:37.923Z,63910.60
2023-04-15T11:32:44.433Z,63770.68
2023-04-15T11:37:48.516Z,63351.25
2023-04-15T11:43:05.453Z,63350.30
2023-04-15T11:48:11.334Z,63088.45
2023-04-15T11:53:15.327Z,62682.19
2023-04-15T11:58:22.017Z,62544.99
2023-04-15T12:03:27.845Z,62279.54
2023-04-15T12:08:46.157Z,62718.62
2023-04-15T12:13:50.207Z,62988.16
2023-04-15T12:18:57.890Z,63242.46
2023-04-15T12:24:04.183Z,63329.77
2023-04-15T12:29:10.970Z,63481.65
2023-04-15T12:34:15.790Z,63370.59
2023-04-15T12:39:19.489Z,63348.78
2023-04-15T12:44:24.538Z,26322.82
2023-04-15T12:49:29.342Z,11.79
2023-04-15T12:54:33.180Z,12.17
2023-04-15T12:59:36.681Z,13.17
2023-04-15T13:04:43.861Z,15.56
2023-04-15T13:09:47.644Z,92.05
2023-04-15T13:14:51.125Z,16907.08
2023-04-15T13:19:58.320Z,51818.10
2023-04-15T13:25:04.146Z,69601.49
2023-04-15T13:30:07.873Z,71163.04
2023-04-15T13:35:14.828Z,71645.60
2023-04-15T13:40:21.104Z,71468.02
2023-04-15T13:45:24.552Z,70188.79
2023-04-15T13:50:29.379Z,35869.57
2023-04-15T13:55:35.035Z,39034.06
2023-04-15T14:00:38.633Z,40897.04
2023-04-15T14:05:43.304Z,43323.63
2023-04-15T14:10:51.568Z,51013.93
2023-04-15T14:15:58.118Z,55992.00
2023-04-15T14:21:02.890Z,57082.63
2023-04-15T14:26:06.474Z,57376.80
2023-04-15T14:31:12.431Z,60523.24
2023-04-15T14:36:17.207Z,63130.50
2023-04-15T14:41:20.779Z,62864.20
2023-04-15T14:46:24.567Z,64961.99
2023-04-15T14:51:29.377Z,63415.62
2023-04-15T14:56:32.813Z,61792.97
2023-04-15T15:01:38.404Z,59722.04
2023-04-15T15:06:43.258Z,58634.57
2023-04-15T15:11:46.703Z,59439.15
2023-04-15T15:16:50.187Z,61568.72
2023-04-15T15:21:59.918Z,62786.00
2023-04-15T15:27:03.428Z,62336.16
2023-04-15T15:32:09.811Z,63747.24
2023-04-15T15:37:14.611Z,64255.99
2023-04-15T15:42:20.567Z,61571.50
2023-04-15T15:47:26.847Z,59802.81
2023-04-15T15:52:31.741Z,61206.98
2023-04-15T15:57:38.177Z,61245.04
2023-04-15T16:07:49.718Z,62522.54
2023-04-15T16:12:55.504Z,63327.09
2023-04-15T16:18:01.483Z,63837.34
2023-04-15T16:23:13.177Z,63269.11
2023-04-15T16:28:25.661Z,63267.34
2023-04-15T16:33:30.105Z,63252.59
2023-04-15T16:38:34.841Z,63825.13
2023-04-15T16:43:40.594Z,60122.18
2023-04-15T16:48:46.303Z,53025.32
2023-04-15T16:53:51.192Z,43853.61
2023-04-15T16:58:54.596Z,43662.14
2023-04-15T17:03:58.282Z,43085.17
2023-04-15T17:09:03.605Z,45115.88
2023-04-15T17:14:07.809Z,48602.06
2023-04-15T17:19:13.577Z,50362.02
2023-04-15T17:24:25.111Z,48620.16
2023-04-15T17:29:35.042Z,49095.09
2023-04-15T17:34:50.239Z,50392.07
2023-04-15T17:40:16.112Z,51816.55
2023-04-15T17:45:39.502Z,52397.28
2023-04-15T17:51:02.849Z,52865.92
2023-04-15T17:56:29.421Z,52237.93
2023-04-15T18:01:55.156Z,51884.68
2023-04-15T18:07:18.952Z,51855.73
2023-04-15T18:12:43.594Z,51306.64
2023-04-15T18:18:06.825Z,50550.46
2023-04-15T18:23:10.188Z,51353.37
2023-04-15T18:28:17.073Z,51246.07
2023-04-15T18:33:22.994Z,50924.62
2023-04-15T18:38:26.457Z,49818.36
2023-04-15T18:43:33.571Z,50913.10
2023-04-15T18:48:39.441Z,50688.79
2023-04-15T18:53:42.788Z,49770.15
2023-04-15T18:59:08.883Z,50674.89
2023-04-15T19:04:13.224Z,51924.75
2023-04-15T19:09:18.891Z,52307.49
2023-04-15T19:14:26.606Z,53549.07
2023-04-15T19:19:32.247Z,53559.75
2023-04-15T19:24:35.901Z,53602.93
2023-04-15T19:29:40.746Z,53955.23
2023-04-15T19:34:47.156Z,54357.68
2023-04-15T19:39:52.958Z,54405.84
2023-04-15T19:44:57.637Z,54468.76
2023-04-15T19:50:01.338Z,54413.52
2023-04-15T19:55:07.193Z,53707.23
2023-04-15T20:00:12.876Z,54219.26
2023-04-15T20:05:16.315Z,54338.84
2023-04-15T20:10:19.830Z,54564.84
2023-04-15T20:15:24.823Z,54680.51
2023-04-15T20:20:28.256Z,54566.79
2023-04-15T20:25:36.596Z,54441.91
2023-04-15T20:30:44.357Z,54519.59
2023-04-15T20:35:47.783Z,54555.51
2023-04-15T20:40:51.344Z,54647.53
2023-04-15T20:46:02.165Z,54323.25
2023-04-15T20:51:10.340Z,54658.34
2023-04-15T20:56:13.770Z,54500.82
2023-04-15T21:01:18.645Z,54569.00
2023-04-15T21:06:22.028Z,54321.76
2023-04-15T21:11:43.129Z,54030.40
2023-04-15T21:16:52.485Z,54146.67
2023-04-15T21:21:55.973Z,53843.74
2023-04-15T21:26:59.383Z,53876.09
2023-04-15T21:32:04.189Z,53834.65
2023-04-15T21:37:09.958Z,53939.59
2023-04-15T21:42:13.485Z,54146.57
2023-04-15T21:47:18.266Z,54236.07
2023-04-15T21:52:24.214Z,54469.10
2023-04-15T21:57:27.597Z,54601.75
2023-04-15T22:02:32.398Z,54580.38
2023-04-15T22:07:36.408Z,54645.81
2023-04-15T22:12:42.268Z,54887.15
2023-04-15T22:17:47.166Z,55172.50
2023-04-15T22:22:54.211Z,55403.27
2023-04-15T22:27:59.939Z,55607.71
2023-04-15T22:33:04.934Z,55821.16
2023-04-15T22:38:08.386Z,55997.73
2023-04-15T22:43:11.774Z,55646.04
2023-04-15T22:48:18.729Z,55756.95
2023-04-15T22:53:22.050Z,55783.44
2023-04-15T22:58:27.776Z,55752.69
2023-04-15T23:03:32.696Z,44199.99
2023-04-15T23:08:58.314Z,14.61
2023-04-15T23:14:03.820Z,17.40
2023-04-15T23:19:08.864Z,12.29
2023-04-15T23:24:12.906Z,12.92
2023-04-15T23:29:16.217Z,12.90
2023-04-15T23:34:20.922Z,12.55
2023-04-15T23:39:24.296Z,11.91
2023-04-15T23:44:27.600Z,13.49
2023-04-15T23:49:34.556Z,12.59
2023-04-15T23:54:40.896Z,13.14
2023-04-15T23:59:44.204Z,14.22
